Terminal Aerodrome Forecast
Issued by NWS Spokane, WA

Home | Current Version | Previous Version | Text Only | Print | Product List | Glossary On
Versions: 1 2 3 4 5 6 7 8 9 10 11 12 13 14 15 16 17 18 19 20 21 22 23
052
FTUS46 KOTX 242320
TAFLWS
TAF
KLWS 242320Z 2500/2524 10005KT P6SM VCSH SCT040 BKN060
     FM250300 14004KT P6SM SCT040 BKN060
     FM251900 32008KT P6SM SCT060 SCT080=

USA.gov is the U.S. government's official web portal to all federal, state and local government web resources and services.